Time;durP1;ratioP1;P1;durP2;ratioP2;P2;SDS_P1;SDS_P2;PMS_P1;PMS_P2;Temp;Humidity;BMP_temperature;BMP_pressure;BME280_temperature;BME280_humidity;BME280_pressure;Samples;Min_cycle;Max_cycle;Signal;HPM_P1;HPM_P2
2021/12/17 00:03:06;;;;;;;16.00;8.68;;;;;;;;;;4952232;29;20039;-66
2021/12/17 00:05:09;;;;;;;17.13;8.70;;;;;;;;;;4953502;29;20047;-66
2021/12/17 00:07:36;;;;;;;13.93;8.50;;;;;;;;;;4955099;29;20484;-66
2021/12/17 00:10:05;;;;;;;15.57;8.70;;;;;;;;;;4938960;29;20067;-66
2021/12/17 00:12:31;;;;;;;16.38;7.88;;;;;;;;;;4953664;29;20450;-66
2021/12/17 00:14:58;;;;;;;17.13;8.30;;;;;;;;;;4950465;29;20106;-66
2021/12/17 00:17:29;;;;;;;14.95;8.18;;;;;;;;;;4955026;29;20035;-67
2021/12/17 00:52:21;;;;;;;16.73;8.70;;;;;;;;;;4957639;28;20126;-66
2021/12/17 00:54:47;;;;;;;15.90;8.32;;;;;;;;;;4973189;28;20093;-66
2021/12/17 00:57:19;;;;;;;16.48;8.32;;;;;;;;;;4973563;28;20518;-66
2021/12/17 00:59:47;;;;;;;12.48;7.68;;;;;;;;;;4956544;28;20509;-66
2021/12/17 01:02:15;;;;;;;13.10;7.22;;;;;;;;;;4973487;28;20058;-66
2021/12/17 01:04:44;;;;;;;14.63;7.65;;;;;;;;;;4972352;28;20039;-66
2021/12/17 01:07:11;;;;;;;15.15;8.50;;;;;;;;;;4957166;28;20043;-66
2021/12/17 01:09:38;;;;;;;22.50;8.38;;;;;;;;;;4956937;28;20046;-66
2021/12/17 01:12:06;;;;;;;13.50;8.15;;;;;;;;;;4957246;28;20027;-66
2021/12/17 01:15:01;;;;;;;14.20;7.65;;;;;;;;;;4956715;28;20420;-66
2021/12/17 01:17:42;;;;;;;14.27;7.82;;;;;;;;;;4972585;28;20478;-66
2021/12/17 01:35:21;;;;;;;15.32;7.88;;;;;;;;;;4993525;28;20034;-66
2021/12/17 01:40:55;;;;;;;13.60;8.30;;;;;;;;;;4993956;28;20026;-66
2021/12/17 01:43:12;;;;;;;18.10;8.90;;;;;;;;;;4993743;28;20495;-66
2021/12/17 01:45:40;;;;;;;18.90;7.78;;;;;;;;;;4992961;28;20036;-66
2021/12/17 01:48:11;;;;;;;15.52;8.77;;;;;;;;;;5008322;28;20272;-66
2021/12/17 02:01:19;;;;;;;17.58;8.63;;;;;;;;;;4992392;28;20410;-66
2021/12/17 02:03:46;;;;;;;15.13;8.15;;;;;;;;;;4992460;28;20031;-67
2021/12/17 02:06:13;;;;;;;15.88;8.05;;;;;;;;;;4992016;28;20038;-66
2021/12/17 02:08:39;;;;;;;16.85;9.38;;;;;;;;;;4992579;28;20084;-66
2021/12/17 02:32:54;;;;;;;20.40;10.60;;;;;;;;;;4952288;29;20031;-66
2021/12/17 02:37:48;;;;;;;15.95;9.65;;;;;;;;;;4935912;29;20537;-66
2021/12/17 02:45:48;;;;;;;20.55;10.95;;;;;;;;;;4955103;28;20535;-66
2021/12/17 02:48:21;;;;;;;21.95;10.77;;;;;;;;;;4951591;29;20043;-66
2021/12/17 02:50:52;;;;;;;17.15;9.30;;;;;;;;;;4936112;29;20035;-67
2021/12/17 02:53:19;;;;;;;20.65;9.85;;;;;;;;;;4940264;29;20031;-67
2021/12/17 02:55:48;;;;;;;16.98;9.52;;;;;;;;;;4935860;29;20038;-66
2021/12/17 02:58:15;;;;;;;20.05;10.13;;;;;;;;;;4951639;29;20035;-66
2021/12/17 03:00:42;;;;;;;17.20;9.73;;;;;;;;;;4951512;29;20106;-66
2021/12/17 03:03:09;;;;;;;20.92;9.90;;;;;;;;;;4948564;29;20133;-66
2021/12/17 03:05:39;;;;;;;16.95;9.75;;;;;;;;;;4949423;29;20042;-66
2021/12/17 03:08:12;;;;;;;15.43;9.15;;;;;;;;;;4950270;28;20043;-66
2021/12/17 03:10:39;;;;;;;24.77;9.82;;;;;;;;;;4986771;28;20438;-66
2021/12/17 03:13:06;;;;;;;23.52;10.90;;;;;;;;;;4990384;28;20102;-66
2021/12/17 03:15:41;;;;;;;17.55;8.88;;;;;;;;;;4992027;28;20386;-66
2021/12/17 03:23:30;;;;;;;24.70;9.98;;;;;;;;;;4992590;28;20358;-66
2021/12/17 03:26:00;;;;;;;23.55;10.77;;;;;;;;;;5007206;28;20045;-66
2021/12/17 03:28:26;;;;;;;21.02;9.75;;;;;;;;;;4990786;28;20022;-66
2021/12/17 03:30:53;;;;;;;21.27;10.15;;;;;;;;;;4991186;28;20034;-66
2021/12/17 03:33:21;;;;;;;22.20;11.07;;;;;;;;;;4990475;28;20497;-66
2021/12/17 03:35:47;;;;;;;22.08;11.95;;;;;;;;;;4992139;28;20042;-66
2021/12/17 03:38:14;;;;;;;24.05;10.85;;;;;;;;;;4992204;28;20457;-66
2021/12/17 03:40:42;;;;;;;22.35;11.48;;;;;;;;;;4987897;28;20391;-66
2021/12/17 03:43:22;;;;;;;24.25;11.63;;;;;;;;;;5006030;28;20014;-66
2021/12/17 03:45:49;;;;;;;32.33;12.45;;;;;;;;;;5004194;28;20023;-67
2021/12/17 03:48:15;;;;;;;29.02;12.75;;;;;;;;;;4982868;28;20130;-67
2021/12/17 03:50:42;;;;;;;26.33;12.15;;;;;;;;;;5006679;28;20053;-66
2021/12/17 03:53:08;;;;;;;27.08;13.40;;;;;;;;;;4991181;28;20030;-66
2021/12/17 03:55:37;;;;;;;29.73;12.75;;;;;;;;;;5006235;28;20034;-66
2021/12/17 03:58:05;;;;;;;26.00;13.50;;;;;;;;;;4988975;28;20077;-66
2021/12/17 04:00:35;;;;;;;24.05;13.52;;;;;;;;;;4989519;28;20030;-66
2021/12/17 04:03:04;;;;;;;26.98;13.90;;;;;;;;;;4989252;28;20522;-66
2021/12/17 04:05:37;;;;;;;27.98;14.35;;;;;;;;;;5006148;28;20553;-66
2021/12/17 04:08:26;;;;;;;31.25;15.02;;;;;;;;;;4991779;28;20031;-67
2021/12/17 04:11:25;;;;;;;28.25;13.73;;;;;;;;;;4977367;28;20038;-66
2021/12/17 04:14:00;;;;;;;28.42;13.30;;;;;;;;;;4989393;28;20030;-66
2021/12/17 04:16:32;;;;;;;33.70;15.57;;;;;;;;;;5006235;28;20023;-67
2021/12/17 04:18:59;;;;;;;28.55;15.48;;;;;;;;;;4991947;28;20030;-66
2021/12/17 04:21:29;;;;;;;28.73;15.93;;;;;;;;;;4993111;28;20049;-66
2021/12/17 04:23:55;;;;;;;37.60;15.18;;;;;;;;;;4993174;28;20080;-66
2021/12/17 04:26:23;;;;;;;32.55;15.65;;;;;;;;;;4992927;28;20035;-66
2021/12/17 04:28:54;;;;;;;;;;;;;;;;;;5009635;28;20038;-66
2021/12/17 04:31:25;;;;;;;32.80;16.10;;;;;;;;;;4992505;28;20000;-66
2021/12/17 04:33:52;;;;;;;27.70;15.05;;;;;;;;;;5009701;28;20026;-67
2021/12/17 04:36:24;;;;;;;26.30;16.05;;;;;;;;;;4992906;28;20503;-67
2021/12/17 04:38:52;;;;;;;35.78;15.90;;;;;;;;;;5009954;28;20633;-67
2021/12/17 04:57:24;;;;;;;32.10;16.35;;;;;;;;;;4993479;28;20033;-66
2021/12/17 04:59:55;;;;;;;36.30;17.38;;;;;;;;;;5009866;28;20117;-66
2021/12/17 05:02:21;;;;;;;33.47;16.35;;;;;;;;;;5008871;28;20023;-66
2021/12/17 05:05:07;;;;;;;38.45;17.52;;;;;;;;;;4993747;28;20491;-66
2021/12/17 05:07:37;;;;;;;;;;;;;;;;;;5010082;28;20034;-66
2021/12/17 05:20:52;;;;;;;35.88;16.77;;;;;;;;;;4986305;28;20038;-66
2021/12/17 05:23:24;;;;;;;;;;;;;;;;;;4991756;28;20043;-66
2021/12/17 05:25:51;;;;;;;39.38;16.40;;;;;;;;;;4992681;28;19914;-66
2021/12/17 05:28:18;;;;;;;31.67;17.05;;;;;;;;;;4993006;28;20057;-66
2021/12/17 05:30:46;;;;;;;39.25;16.30;;;;;;;;;;4992250;28;20042;-66
2021/12/17 05:33:16;;;;;;;29.08;15.50;;;;;;;;;;5009048;28;20121;-66
2021/12/17 05:35:43;;;;;;;36.53;16.05;;;;;;;;;;5009099;28;20050;-66
2021/12/17 05:38:11;;;;;;;45.17;17.40;;;;;;;;;;5008814;28;20085;-66
2021/12/17 05:40:38;;;;;;;37.78;16.83;;;;;;;;;;4994278;28;20372;-66
2021/12/17 05:43:05;;;;;;;36.58;17.83;;;;;;;;;;4992873;28;20018;-66
2021/12/17 05:46:35;;;;;;;35.55;16.63;;;;;;;;;;4992568;28;20101;-66
2021/12/17 05:48:23;;;;;;;34.22;16.02;;;;;;;;;;4992430;28;20462;-66
2021/12/17 05:50:50;;;;;;;35.08;15.98;;;;;;;;;;4991442;28;20688;-66
2021/12/17 05:53:17;;;;;;;30.52;16.77;;;;;;;;;;5006906;28;20379;-66
2021/12/17 05:55:44;;;;;;;33.13;18.23;;;;;;;;;;4991409;28;20557;-66
2021/12/17 05:58:10;;;;;;;34.45;17.33;;;;;;;;;;5007834;28;20032;-66
2021/12/17 06:00:39;;;;;;;33.10;16.92;;;;;;;;;;4991143;28;20455;-66
2021/12/17 06:03:25;;;;;;;37.90;16.60;;;;;;;;;;4986788;28;20031;-66
2021/12/17 06:06:03;;;;;;;30.85;15.55;;;;;;;;;;5007879;28;20040;-67
2021/12/17 06:08:29;;;;;;;34.25;16.65;;;;;;;;;;4991712;28;20391;-66
2021/12/17 06:10:56;;;;;;;36.72;16.40;;;;;;;;;;4991980;28;20053;-66
2021/12/17 06:13:24;;;;;;;39.72;16.67;;;;;;;;;;4991520;28;20018;-66
2021/12/17 06:15:50;;;;;;;30.38;16.15;;;;;;;;;;4992265;28;20030;-66
2021/12/17 06:18:17;;;;;;;35.00;15.98;;;;;;;;;;4990917;28;20026;-66
2021/12/17 06:20:44;;;;;;;41.05;18.70;;;;;;;;;;4999610;28;20438;-66
2021/12/17 06:23:10;;;;;;;42.10;17.77;;;;;;;;;;4990889;28;20439;-66
2021/12/17 06:25:36;;;;;;;34.30;16.77;;;;;;;;;;4991528;28;20068;-66
2021/12/17 06:28:03;;;;;;;37.60;16.13;;;;;;;;;;5010761;28;20030;-66
2021/12/17 06:30:29;;;;;;;30.73;15.75;;;;;;;;;;4996531;28;20168;-66
2021/12/17 06:32:56;;;;;;;39.83;16.65;;;;;;;;;;5015279;28;20026;-66
2021/12/17 06:35:26;;;;;;;36.55;15.90;;;;;;;;;;5017917;28;20136;-66
2021/12/17 06:37:52;;;;;;;31.88;16.02;;;;;;;;;;5009686;28;20499;-66
2021/12/17 06:40:24;;;;;;;32.55;16.23;;;;;;;;;;4992083;28;20560;-66
2021/12/17 06:42:51;;;;;;;36.60;16.33;;;;;;;;;;5007075;28;20033;-67
2021/12/17 06:45:37;;;;;;;36.00;16.33;;;;;;;;;;4990630;28;20077;-67
2021/12/17 06:48:04;;;;;;;32.78;16.05;;;;;;;;;;4996826;28;20088;-67
2021/12/17 07:19:05;;;;;;;34.33;18.52;;;;;;;;;;4950258;28;20090;-66
2021/12/17 07:34:46;;;;;;;45.47;17.52;;;;;;;;;;4932546;29;20098;-66
2021/12/17 07:39:41;;;;;;;36.17;17.60;;;;;;;;;;4931216;29;20024;-66
2021/12/17 07:42:29;;;;;;;35.90;18.75;;;;;;;;;;4935682;29;20048;-66
2021/12/17 07:44:55;;;;;;;40.78;17.08;;;;;;;;;;4932488;29;20040;-66
2021/12/17 07:47:37;;;;;;;41.55;17.65;;;;;;;;;;4930810;29;20052;-66
2021/12/17 07:50:39;;;;;;;42.15;16.70;;;;;;;;;;4900464;29;20052;-66
2021/12/17 07:53:25;;;;;;;42.47;17.38;;;;;;;;;;4856976;29;20099;-66
2021/12/17 07:56:04;;;;;;;42.10;18.20;;;;;;;;;;4859241;29;20138;-66
2021/12/17 07:58:35;;;;;;;42.47;18.05;;;;;;;;;;4846285;29;20033;-66
2021/12/17 08:01:02;;;;;;;48.45;18.10;;;;;;;;;;4844250;29;20033;-66
2021/12/17 08:03:28;;;;;;;39.20;18.45;;;;;;;;;;4821316;29;20411;-66
2021/12/17 08:05:59;;;;;;;39.83;17.95;;;;;;;;;;4814853;29;20416;-66
2021/12/17 08:08:27;;;;;;;36.05;18.23;;;;;;;;;;4839520;29;20124;-67
2021/12/17 08:11:13;;;;;;;34.80;17.02;;;;;;;;;;4843548;29;20034;-67
2021/12/17 08:13:42;;;;;;;40.80;19.67;;;;;;;;;;4862001;29;20041;-67
2021/12/17 08:16:20;;;;;;;41.65;17.45;;;;;;;;;;4852449;29;20124;-67
2021/12/17 08:32:06;;;;;;;41.33;19.23;;;;;;;;;;4992308;28;20065;-67
2021/12/17 08:34:45;;;;;;;47.55;17.45;;;;;;;;;;5006627;28;20050;-67
2021/12/17 08:37:13;;;;;;;38.17;18.17;;;;;;;;;;4992651;28;20390;-67
2021/12/17 08:39:39;;;;;;;45.83;18.92;;;;;;;;;;4992685;28;20205;-67
2021/12/17 08:42:23;;;;;;;36.33;18.40;;;;;;;;;;5007862;28;20494;-67
2021/12/17 08:44:50;;;;;;;39.17;18.13;;;;;;;;;;4991613;28;20026;-67
2021/12/17 08:47:36;;;;;;;33.75;17.67;;;;;;;;;;4987483;28;20049;-67
2021/12/17 08:50:06;;;;;;;50.40;18.67;;;;;;;;;;5008184;28;20061;-67
2021/12/17 08:52:33;;;;;;;37.15;18.15;;;;;;;;;;5015859;28;20379;-67
2021/12/17 08:54:59;;;;;;;40.20;17.33;;;;;;;;;;4990906;28;20073;-67
2021/12/17 08:57:26;;;;;;;42.50;18.92;;;;;;;;;;4994547;28;20018;-67
2021/12/17 08:59:55;;;;;;;40.17;19.08;;;;;;;;;;4993072;28;20101;-67
2021/12/17 09:02:27;;;;;;;39.42;17.88;;;;;;;;;;5008198;28;20035;-67
2021/12/17 09:05:13;;;;;;;35.28;15.70;;;;;;;;;;4951298;28;20051;-67
2021/12/17 09:07:46;;;;;;;;;;;;;;;;;;4936786;29;20122;-67
2021/12/17 09:10:55;;;;;;;42.08;17.92;;;;;;;;;;4930586;29;20631;-67
2021/12/17 09:13:26;;;;;;;37.83;17.40;;;;;;;;;;4934599;29;20114;-67
2021/12/17 09:15:59;;;;;;;37.85;17.48;;;;;;;;;;4951441;28;20055;-66
2021/12/17 09:18:34;;;;;;;35.75;17.25;;;;;;;;;;4948662;29;20072;-66
2021/12/17 09:21:16;;;;;;;46.60;17.98;;;;;;;;;;4946882;29;20446;-66
2021/12/17 09:24:17;;;;;;;36.20;16.42;;;;;;;;;;4930635;28;20130;-66
2021/12/17 09:27:04;;;;;;;35.67;16.63;;;;;;;;;;4910785;29;20040;-68
2021/12/17 09:29:56;;;;;;;32.95;16.42;;;;;;;;;;4906543;29;20048;-67
2021/12/17 09:32:22;;;;;;;37.15;15.85;;;;;;;;;;4915298;29;20127;-67
2021/12/17 09:34:48;;;;;;;32.70;15.70;;;;;;;;;;4904909;29;20063;-67
2021/12/17 09:37:17;;;;;;;38.83;16.25;;;;;;;;;;4910348;29;20032;-67
2021/12/17 09:39:43;;;;;;;43.30;17.52;;;;;;;;;;4910246;29;20036;-67
2021/12/17 09:42:10;;;;;;;38.38;17.38;;;;;;;;;;4929428;29;20036;-67
2021/12/17 09:44:36;;;;;;;34.40;15.98;;;;;;;;;;4950070;29;20389;-67
2021/12/17 09:47:03;;;;;;;43.05;16.33;;;;;;;;;;4951196;29;20561;-67
2021/12/17 09:49:29;;;;;;;32.53;14.80;;;;;;;;;;4950274;29;20067;-67
2021/12/17 09:51:56;;;;;;;40.00;15.57;;;;;;;;;;4951394;29;20047;-67
2021/12/17 09:54:22;;;;;;;37.85;17.73;;;;;;;;;;4934718;29;20407;-67
2021/12/17 09:56:49;;;;;;;39.22;15.38;;;;;;;;;;4949964;28;20499;-67
2021/12/17 09:59:15;;;;;;;34.97;16.60;;;;;;;;;;4948010;28;20031;-67
2021/12/17 10:01:43;;;;;;;31.10;16.10;;;;;;;;;;4950461;28;20039;-67
2021/12/17 10:04:26;;;;;;;38.05;15.93;;;;;;;;;;4971946;28;20034;-67
2021/12/17 10:06:53;;;;;;;32.28;16.27;;;;;;;;;;4985299;28;20022;-67
2021/12/17 10:09:19;;;;;;;32.30;16.17;;;;;;;;;;4988481;28;20735;-67
2021/12/17 10:12:05;;;;;;;30.92;15.57;;;;;;;;;;4990653;28;20088;-67
2021/12/17 10:14:32;;;;;;;35.53;15.70;;;;;;;;;;4986810;28;20041;-66
2021/12/17 10:17:27;;;;;;;38.80;16.25;;;;;;;;;;4989851;28;20061;-67
2021/12/17 10:19:53;;;;;;;37.92;15.68;;;;;;;;;;4977116;28;20382;-67
2021/12/17 10:22:20;;;;;;;36.95;16.90;;;;;;;;;;4989150;28;20486;-67
2021/12/17 10:24:56;;;;;;;38.70;16.85;;;;;;;;;;4989800;28;20026;-67
2021/12/17 10:27:25;;;;;;;35.30;16.02;;;;;;;;;;4986767;28;20022;-67
2021/12/17 10:29:51;;;;;;;39.15;17.17;;;;;;;;;;4990687;28;20030;-67
2021/12/17 10:32:18;;;;;;;35.25;16.40;;;;;;;;;;4990999;28;20025;-67
2021/12/17 10:35:03;;;;;;;32.33;17.17;;;;;;;;;;4990954;28;20607;-67
2021/12/17 10:37:40;;;;;;;33.72;16.92;;;;;;;;;;4990857;28;20031;-67
2021/12/17 10:40:20;;;;;;;42.28;17.52;;;;;;;;;;4991651;28;20026;-67
2021/12/17 10:42:56;;;;;;;40.00;18.17;;;;;;;;;;4990190;28;20035;-67
2021/12/17 10:45:27;;;;;;;37.85;17.23;;;;;;;;;;4991547;28;20026;-67
2021/12/17 10:50:54;;;;;;;42.78;17.90;;;;;;;;;;4989679;28;20816;-67
2021/12/17 10:53:24;;;;;;;38.60;17.65;;;;;;;;;;4991105;28;20033;-67
2021/12/17 10:55:51;;;;;;;38.90;16.70;;;;;;;;;;4990550;28;20030;-67
2021/12/17 10:58:17;;;;;;;34.92;16.58;;;;;;;;;;4990772;28;20026;-67
2021/12/17 11:01:09;;;;;;;42.97;19.65;;;;;;;;;;4990841;28;20027;-66
2021/12/17 11:03:42;;;;;;;39.25;16.70;;;;;;;;;;4987885;28;20364;-66
2021/12/17 11:06:09;;;;;;;32.45;16.65;;;;;;;;;;4989850;28;20026;-67
2021/12/17 11:08:37;;;;;;;37.53;17.25;;;;;;;;;;4990554;28;20030;-67
2021/12/17 11:11:12;;;;;;;35.22;17.75;;;;;;;;;;4991057;28;20460;-66
2021/12/17 11:13:52;;;;;;;35.42;18.27;;;;;;;;;;4988584;28;20045;-66
2021/12/17 11:16:22;;;;;;;36.00;18.60;;;;;;;;;;4990035;28;20033;-67
2021/12/17 11:18:51;;;;;;;39.92;19.02;;;;;;;;;;4989388;28;20093;-67
2021/12/17 11:21:17;;;;;;;39.15;17.75;;;;;;;;;;4988959;28;20096;-67
2021/12/17 11:23:43;;;;;;;38.55;17.33;;;;;;;;;;4989268;28;20490;-67
2021/12/17 11:26:09;;;;;;;40.08;16.75;;;;;;;;;;4988546;28;20089;-67
2021/12/17 11:28:36;;;;;;;38.05;18.40;;;;;;;;;;4991624;28;20490;-67
2021/12/17 11:31:02;;;;;;;42.50;18.33;;;;;;;;;;4994566;28;20049;-67
2021/12/17 11:33:28;;;;;;;41.60;18.38;;;;;;;;;;4994860;28;20065;-67
2021/12/17 11:35:54;;;;;;;44.75;19.80;;;;;;;;;;4998468;28;20039;-67
2021/12/17 11:38:39;;;;;;;34.70;16.60;;;;;;;;;;4995800;28;20662;-67
2021/12/17 11:41:05;;;;;;;32.22;16.23;;;;;;;;;;4993178;28;20513;-67
2021/12/17 11:43:50;;;;;;;35.30;17.17;;;;;;;;;;4992714;28;20398;-67
2021/12/17 11:46:17;;;;;;;34.78;17.17;;;;;;;;;;4994304;28;20053;-66
2021/12/17 11:48:50;;;;;;;34.63;18.67;;;;;;;;;;4993202;28;20474;-66
2021/12/17 11:51:18;;;;;;;37.08;17.92;;;;;;;;;;4993976;28;20034;-67
2021/12/17 11:53:54;;;;;;;27.75;15.75;;;;;;;;;;4994594;28;20486;-67
2021/12/17 11:56:36;;;;;;;34.38;15.90;;;;;;;;;;4994732;28;20431;-67
2021/12/17 11:59:03;;;;;;;33.28;16.05;;;;;;;;;;4994204;28;20501;-66
2021/12/17 12:01:47;;;;;;;36.72;15.60;;;;;;;;;;4993637;28;20581;-67
2021/12/17 12:04:22;;;;;;;38.60;16.67;;;;;;;;;;4994845;28;20121;-67
2021/12/17 12:07:03;;;;;;;37.55;16.58;;;;;;;;;;4993294;28;20061;-67
2021/12/17 12:10:05;;;;;;;33.53;17.38;;;;;;;;;;4994286;28;20446;-67
2021/12/17 12:12:34;;;;;;;33.30;16.88;;;;;;;;;;4957174;28;20436;-67
2021/12/17 12:15:27;;;;;;;28.23;13.88;;;;;;;;;;4972207;28;20042;-67
2021/12/17 12:18:02;;;;;;;32.13;15.80;;;;;;;;;;4973782;28;20022;-67
2021/12/17 12:20:52;;;;;;;30.00;13.50;;;;;;;;;;4969852;28;20064;-67
2021/12/17 12:23:30;;;;;;;29.05;13.60;;;;;;;;;;4972956;28;20041;-67
2021/12/17 12:26:05;;;;;;;32.63;14.35;;;;;;;;;;4973094;28;20085;-67
2021/12/17 12:28:49;;;;;;;29.92;14.93;;;;;;;;;;4972745;28;20049;-67
2021/12/17 12:31:25;;;;;;;29.10;14.00;;;;;;;;;;4977972;28;20479;-67
2021/12/17 12:34:10;;;;;;;30.52;15.70;;;;;;;;;;4971787;28;20454;-67
2021/12/17 12:36:57;;;;;;;34.83;15.85;;;;;;;;;;4970280;28;20081;-68
2021/12/17 12:39:25;;;;;;;33.65;16.00;;;;;;;;;;4969612;28;20038;-66
2021/12/17 12:42:08;;;;;;;34.03;16.90;;;;;;;;;;4972399;28;20050;-67
2021/12/17 12:44:40;;;;;;;39.20;17.60;;;;;;;;;;4969949;28;20039;-67
2021/12/17 12:47:07;;;;;;;35.97;18.38;;;;;;;;;;4987366;28;20522;-67
2021/12/17 12:49:52;;;;;;;37.70;18.17;;;;;;;;;;4994654;28;20030;-67
2021/12/17 12:52:24;;;;;;;40.42;17.58;;;;;;;;;;4994460;28;20490;-67
2021/12/17 12:54:55;;;;;;;40.97;16.48;;;;;;;;;;4992663;28;20065;-67
2021/12/17 12:57:29;;;;;;;36.58;18.77;;;;;;;;;;4992700;28;20375;-67
2021/12/17 12:59:57;;;;;;;34.20;16.73;;;;;;;;;;4993114;28;20019;-67
2021/12/17 13:02:25;;;;;;;41.60;17.23;;;;;;;;;;4992649;28;20022;-67
2021/12/17 13:04:55;;;;;;;46.38;18.50;;;;;;;;;;4993038;28;20042;-67
2021/12/17 13:07:38;;;;;;;36.75;18.05;;;;;;;;;;4993840;28;20061;-67
2021/12/17 13:10:07;;;;;;;34.13;18.17;;;;;;;;;;4994207;28;20542;-67
2021/12/17 13:12:35;;;;;;;44.33;19.85;;;;;;;;;;4994092;28;20038;-67
2021/12/17 13:15:16;;;;;;;43.63;19.77;;;;;;;;;;4993382;28;20394;-67
2021/12/17 13:20:04;;;;;;;44.15;20.13;;;;;;;;;;4993359;28;20031;-67
2021/12/17 13:20:56;;;;;;;34.53;17.42;;;;;;;;;;4993994;28;20399;-67
2021/12/17 13:23:23;;;;;;;52.45;22.13;;;;;;;;;;4988881;28;20019;-67
2021/12/17 13:26:03;;;;;;;46.85;20.45;;;;;;;;;;4993583;28;20066;-67
2021/12/17 13:28:29;;;;;;;41.33;20.90;;;;;;;;;;4990274;28;20040;-67
2021/12/17 13:30:56;;;;;;;45.17;21.90;;;;;;;;;;4992971;28;20030;-67
2021/12/17 13:33:22;;;;;;;47.08;20.83;;;;;;;;;;4994150;28;20030;-67
2021/12/17 13:35:48;;;;;;;45.40;22.17;;;;;;;;;;4992899;28;20042;-67
2021/12/17 13:38:14;;;;;;;45.95;21.15;;;;;;;;;;4993156;28;20029;-67
2021/12/17 13:40:40;;;;;;;50.25;23.35;;;;;;;;;;4993000;28;20089;-67
2021/12/17 13:43:06;;;;;;;49.42;22.52;;;;;;;;;;4993322;28;20113;-67
2021/12/17 13:45:33;;;;;;;46.78;21.73;;;;;;;;;;4993056;28;20450;-67
2021/12/17 13:47:59;;;;;;;46.75;20.25;;;;;;;;;;4993454;28;20026;-67
2021/12/17 13:50:25;;;;;;;47.35;22.20;;;;;;;;;;4993673;28;20030;-67
2021/12/17 13:52:53;;;;;;;56.47;22.73;;;;;;;;;;4992005;28;20070;-67
2021/12/17 13:55:22;;;;;;;48.97;22.95;;;;;;;;;;4993796;28;20113;-67
2021/12/17 13:57:48;;;;;;;50.40;22.67;;;;;;;;;;4993388;28;20375;-67
2021/12/17 14:00:17;;;;;;;51.05;23.30;;;;;;;;;;4991133;28;20034;-67
2021/12/17 14:02:44;;;;;;;55.17;24.30;;;;;;;;;;4992536;28;20042;-67
2021/12/17 14:05:14;;;;;;;50.60;23.92;;;;;;;;;;4991421;28;20022;-67
2021/12/17 14:07:40;;;;;;;55.88;24.30;;;;;;;;;;4991406;28;20375;-67
2021/12/17 14:10:11;;;;;;;52.42;23.58;;;;;;;;;;4991967;28;20034;-67
2021/12/17 14:12:39;;;;;;;47.33;23.23;;;;;;;;;;4992470;28;20572;-67
2021/12/17 14:15:20;;;;;;;58.08;25.85;;;;;;;;;;4991878;28;20061;-67
2021/12/17 14:17:53;;;;;;;62.13;25.10;;;;;;;;;;4992468;28;20081;-67
2021/12/17 14:20:22;;;;;;;59.45;27.50;;;;;;;;;;4991067;28;20041;-67
2021/12/17 14:22:49;;;;;;;61.55;26.95;;;;;;;;;;4992090;28;20055;-67
2021/12/17 14:25:28;;;;;;;54.47;23.92;;;;;;;;;;4990072;28;20069;-67
2021/12/17 14:27:55;;;;;;;63.70;27.20;;;;;;;;;;4991115;28;20118;-68
2021/12/17 14:30:26;;;;;;;55.83;26.67;;;;;;;;;;4989733;28;20498;-68
2021/12/17 14:32:52;;;;;;;62.03;26.10;;;;;;;;;;4992159;28;20077;-68
2021/12/17 14:35:37;;;;;;;54.97;25.83;;;;;;;;;;4990077;28;20035;-68
2021/12/17 14:38:03;;;;;;;58.53;27.65;;;;;;;;;;4990522;28;20022;-68
2021/12/17 14:40:38;;;;;;;56.17;26.15;;;;;;;;;;4991368;28;20077;-68
2021/12/17 14:43:17;;;;;;;63.78;28.30;;;;;;;;;;4992138;28;20030;-68
2021/12/17 14:45:50;;;;;;;61.28;27.13;;;;;;;;;;4987412;28;20026;-68
2021/12/17 14:48:17;;;;;;;63.75;26.73;;;;;;;;;;4990843;28;20097;-68
2021/12/17 15:02:14;;;;;;;55.22;26.55;;;;;;;;;;4923580;29;20028;-69
2021/12/17 15:04:40;;;;;;;72.53;28.05;;;;;;;;;;4928273;29;20196;-69
2021/12/17 15:07:06;;;;;;;63.72;27.80;;;;;;;;;;4928996;29;20036;-68
2021/12/17 15:09:35;;;;;;;64.40;29.20;;;;;;;;;;4924004;29;20050;-68
2021/12/17 15:12:11;;;;;;;66.07;30.20;;;;;;;;;;4924042;29;20047;-68
2021/12/17 15:14:37;;;;;;;66.93;28.40;;;;;;;;;;4924330;29;20063;-68
2021/12/17 15:17:04;;;;;;;67.28;29.77;;;;;;;;;;4927578;29;20043;-68
2021/12/17 15:19:30;;;;;;;66.60;31.20;;;;;;;;;;4921348;29;20044;-68
2021/12/17 15:21:57;;;;;;;67.20;32.03;;;;;;;;;;4923129;29;20021;-67
2021/12/17 15:24:23;;;;;;;65.40;29.95;;;;;;;;;;4922743;29;20509;-67
2021/12/17 15:26:49;;;;;;;66.57;30.42;;;;;;;;;;4926451;29;20071;-67
2021/12/17 15:29:15;;;;;;;70.43;30.20;;;;;;;;;;4924220;29;20036;-67
2021/12/17 15:31:41;;;;;;;64.95;29.02;;;;;;;;;;4985277;28;20042;-67
2021/12/17 15:34:07;;;;;;;68.35;30.20;;;;;;;;;;4989986;28;20026;-67
2021/12/17 15:36:33;;;;;;;70.28;30.52;;;;;;;;;;4989759;28;20054;-67
2021/12/17 15:38:59;;;;;;;66.60;29.15;;;;;;;;;;4990102;28;20118;-67
2021/12/17 15:41:25;;;;;;;61.33;29.13;;;;;;;;;;4990148;28;20105;-67
2021/12/17 15:43:52;;;;;;;70.07;29.30;;;;;;;;;;4989833;28;20540;-67
2021/12/17 15:46:18;;;;;;;63.65;29.23;;;;;;;;;;4990132;28;20399;-67
2021/12/17 15:48:45;;;;;;;63.05;29.60;;;;;;;;;;4989207;28;20031;-67
2021/12/17 15:51:11;;;;;;;72.22;29.00;;;;;;;;;;4989130;28;20030;-67
2021/12/17 15:53:37;;;;;;;76.32;30.63;;;;;;;;;;4989492;28;20125;-67
2021/12/17 15:56:03;;;;;;;68.50;31.67;;;;;;;;;;4989975;28;20490;-67
2021/12/17 15:58:30;;;;;;;65.05;31.23;;;;;;;;;;4989460;28;20092;-67
2021/12/17 16:00:56;;;;;;;70.75;30.45;;;;;;;;;;4989165;28;20026;-68
2021/12/17 16:03:30;;;;;;;63.08;29.90;;;;;;;;;;4989702;28;20418;-68
2021/12/17 16:05:57;;;;;;;74.28;32.13;;;;;;;;;;4991171;28;20066;-67
2021/12/17 16:08:23;;;;;;;60.03;30.17;;;;;;;;;;4991204;28;20019;-67
2021/12/17 16:21:39;;;;;;;71.95;32.33;;;;;;;;;;4992672;28;20030;-67
2021/12/17 16:24:05;;;;;;;69.72;31.15;;;;;;;;;;4992955;28;20466;-68
2021/12/17 16:26:31;;;;;;;65.13;30.80;;;;;;;;;;4991464;28;20045;-68
2021/12/17 16:28:57;;;;;;;73.00;31.85;;;;;;;;;;4992513;28;20034;-68
2021/12/17 16:31:25;;;;;;;73.88;32.33;;;;;;;;;;4993361;28;20096;-68
2021/12/17 16:33:54;;;;;;;71.40;33.10;;;;;;;;;;4993243;28;20038;-68
2021/12/17 16:36:20;;;;;;;67.43;31.45;;;;;;;;;;4993332;28;20042;-68
2021/12/17 16:38:47;;;;;;;73.10;32.03;;;;;;;;;;4993633;28;20022;-68
2021/12/17 16:41:13;;;;;;;65.70;31.88;;;;;;;;;;4993386;28;20026;-67
2021/12/17 16:43:42;;;;;;;72.90;33.55;;;;;;;;;;4993270;28;20407;-66
2021/12/17 16:48:38;;;;;;;77.13;32.90;;;;;;;;;;4993248;28;20103;-66
2021/12/17 16:51:04;;;;;;;75.00;31.90;;;;;;;;;;4993184;28;20054;-66
2021/12/17 16:53:30;;;;;;;69.40;30.58;;;;;;;;;;4992126;28;20061;-67
2021/12/17 16:55:57;;;;;;;66.88;28.35;;;;;;;;;;4992927;28;20398;-66
2021/12/17 16:58:23;;;;;;;67.93;29.92;;;;;;;;;;4992031;28;20026;-67
2021/12/17 17:00:49;;;;;;;66.88;29.38;;;;;;;;;;4992813;28;20027;-67
2021/12/17 17:03:16;;;;;;;67.40;28.48;;;;;;;;;;4991975;28;20068;-66
2021/12/17 17:05:42;;;;;;;64.95;28.50;;;;;;;;;;4992760;28;20023;-66
2021/12/17 17:08:09;;;;;;;65.43;28.40;;;;;;;;;;4991032;28;20140;-66
2021/12/17 17:10:35;;;;;;;67.63;28.13;;;;;;;;;;4989400;28;20058;-66
2021/12/17 17:13:04;;;;;;;67.43;30.30;;;;;;;;;;4988793;28;20510;-66
2021/12/17 17:15:34;;;;;;;73.85;30.17;;;;;;;;;;4988195;28;20125;-65
2021/12/17 17:18:10;;;;;;;59.30;26.27;;;;;;;;;;4989087;28;20030;-66
2021/12/17 17:20:36;;;;;;;51.85;23.50;;;;;;;;;;4990770;28;20396;-67
2021/12/17 17:23:02;;;;;;;53.40;22.23;;;;;;;;;;4991206;28;20030;-67
2021/12/17 17:25:29;;;;;;;50.53;22.27;;;;;;;;;;4991744;28;20141;-66
2021/12/17 17:27:55;;;;;;;48.17;22.67;;;;;;;;;;4990539;28;20078;-66
2021/12/17 17:30:22;;;;;;;46.13;22.38;;;;;;;;;;4992702;28;20026;-67
2021/12/17 17:32:48;;;;;;;54.38;22.42;;;;;;;;;;4992114;28;20073;-66
2021/12/17 17:35:15;;;;;;;47.97;22.42;;;;;;;;;;4992436;28;20049;-67
2021/12/17 17:37:41;;;;;;;42.00;20.92;;;;;;;;;;4990779;28;20026;-66
2021/12/17 17:40:12;;;;;;;45.80;21.70;;;;;;;;;;4992061;28;20027;-67
2021/12/17 17:42:38;;;;;;;49.50;21.20;;;;;;;;;;4992232;28;20029;-67
2021/12/17 17:45:05;;;;;;;58.67;21.63;;;;;;;;;;4992557;28;20030;-66
2021/12/17 17:47:31;;;;;;;46.20;22.45;;;;;;;;;;5007563;28;20045;-66
2021/12/17 17:49:57;;;;;;;51.08;22.95;;;;;;;;;;4992951;28;20102;-67
2021/12/17 17:52:24;;;;;;;53.17;24.00;;;;;;;;;;4991536;28;20026;-67
2021/12/17 17:54:50;;;;;;;57.72;25.42;;;;;;;;;;4991708;28;20038;-66
2021/12/17 17:57:16;;;;;;;47.88;24.90;;;;;;;;;;4991590;28;20026;-67
2021/12/17 17:59:48;;;;;;;55.95;25.38;;;;;;;;;;4992643;28;20030;-66
2021/12/17 18:02:14;;;;;;;49.75;23.38;;;;;;;;;;4992863;28;20033;-66
2021/12/17 18:04:41;;;;;;;49.15;25.33;;;;;;;;;;4992005;28;20067;-66
2021/12/17 18:07:10;;;;;;;53.88;26.48;;;;;;;;;;4992927;28;20023;-66
2021/12/17 18:09:40;;;;;;;61.10;28.90;;;;;;;;;;4992582;28;20494;-66
2021/12/17 18:12:08;;;;;;;49.75;24.98;;;;;;;;;;4991580;28;20383;-66